createdAt,value
2023-09-09T00:01:39.438Z,4.50
2023-09-09T00:04:49.489Z,4.60
2023-09-09T00:09:05.265Z,4.50
2023-09-09T00:11:54.904Z,4.30
2023-09-09T00:16:07.131Z,4.70
2023-09-09T00:18:57.828Z,4.60
2023-09-09T00:25:55.372Z,4.80
2023-09-09T00:33:25.913Z,4.30
2023-09-09T00:37:04.308Z,4.70
2023-09-09T00:50:33.690Z,4.50
2023-09-09T00:53:52.458Z,4.40
2023-09-09T00:57:21.964Z,4.20
2023-09-09T01:04:39.157Z,3.90
2023-09-09T01:08:47.364Z,4.20
2023-09-09T01:12:04.851Z,4.50
2023-09-09T01:15:35.690Z,4.00
2023-09-09T01:22:19.658Z,4.40
2023-09-09T01:25:39.551Z,4.60
2023-09-09T01:32:38.711Z,4.50
2023-09-09T01:48:58.142Z,3.90
2023-09-09T01:52:41.102Z,3.70
2023-09-09T02:05:36.522Z,4.10
2023-09-09T02:18:32.872Z,3.90
2023-09-09T02:21:06.699Z,4.40
2023-09-09T02:24:53.840Z,4.10
2023-09-09T02:27:44.734Z,3.60
2023-09-09T02:35:58.483Z,3.00
2023-09-09T02:42:41.916Z,3.90
2023-09-09T02:46:32.701Z,4.60
2023-09-09T02:50:18.958Z,4.00
2023-09-09T02:53:46.662Z,3.70
2023-09-09T02:56:54.837Z,3.80
2023-09-09T03:08:41.799Z,3.70
2023-09-09T03:12:09.700Z,3.30
2023-09-09T03:15:04.719Z,3.10
2023-09-09T03:18:32.724Z,3.70
2023-09-09T03:22:00.162Z,3.90
2023-09-09T03:35:45.331Z,4.20
2023-09-09T03:45:21.798Z,4.00
2023-09-09T03:49:14.191Z,3.70
2023-09-09T03:52:27.174Z,3.70
2023-09-09T03:55:19.413Z,3.90
2023-09-09T03:57:59.816Z,4.00
2023-09-09T04:00:41.280Z,3.50
2023-09-09T04:08:18.783Z,3.70
2023-09-09T04:11:22.261Z,3.30
2023-09-09T04:14:33.060Z,4.20
2023-09-09T04:17:45.318Z,3.50
2023-09-09T04:20:52.675Z,3.60
2023-09-09T04:23:47.409Z,3.70
2023-09-09T04:26:54.440Z,3.80
2023-09-09T04:30:26.967Z,4.30
2023-09-09T04:33:51.435Z,4.40
2023-09-09T04:36:41.298Z,3.70
2023-09-09T04:39:26.228Z,3.70
2023-09-09T04:42:35.843Z,3.60
2023-09-09T04:45:27.041Z,4.20
2023-09-09T04:48:06.767Z,3.50
2023-09-09T04:51:27.100Z,3.50
2023-09-09T04:54:52.950Z,3.90
2023-09-09T04:58:03.619Z,3.20
2023-09-09T05:01:33.147Z,3.50
2023-09-09T05:14:17.169Z,3.60
2023-09-09T05:17:07.116Z,3.60
2023-09-09T05:19:55.143Z,3.30
2023-09-09T05:22:57.700Z,3.70
2023-09-09T05:26:22.499Z,3.90
2023-09-09T05:29:32.437Z,3.60
2023-09-09T05:32:33.502Z,3.60
2023-09-09T05:35:45.725Z,3.80
2023-09-09T05:39:43.348Z,3.40
2023-09-09T05:42:34.772Z,3.40
2023-09-09T05:45:12.483Z,3.70
2023-09-09T05:48:28.662Z,4.00
2023-09-09T05:51:20.050Z,3.50
2023-09-09T05:53:53.113Z,3.90
2023-09-09T05:57:18.454Z,2.90
2023-09-09T06:00:21.169Z,3.60
2023-09-09T06:03:32.483Z,3.60
2023-09-09T06:06:21.848Z,3.20
2023-09-09T06:09:17.436Z,3.30
2023-09-09T06:16:00.502Z,3.90
2023-09-09T06:22:35.465Z,3.80
2023-09-09T06:25:46.360Z,4.10
2023-09-09T06:28:52.123Z,4.10
2023-09-09T06:31:22.769Z,4.00
2023-09-09T06:34:32.792Z,4.30
2023-09-09T06:38:04.927Z,4.00
2023-09-09T06:44:01.882Z,4.60
2023-09-09T06:46:33.948Z,4.10
2023-09-09T06:49:48.171Z,4.10
2023-09-09T06:56:03.458Z,3.80
2023-09-09T06:58:44.165Z,4.50
2023-09-09T07:01:47.918Z,4.50
2023-09-09T07:04:49.582Z,4.60
2023-09-09T07:07:40.776Z,5.20
2023-09-09T07:11:29.795Z,6.60
2023-09-09T07:14:34.658Z,7.10
2023-09-09T07:17:12.197Z,5.30
2023-09-09T07:20:26.096Z,6.10
2023-09-09T07:22:57.880Z,21.20
2023-09-09T07:25:47.503Z,5.70
2023-09-09T07:28:24.160Z,4.00
2023-09-09T07:33:53.257Z,4.20
2023-09-09T07:36:45.904Z,3.90
2023-09-09T07:42:29.552Z,3.40
2023-09-09T07:45:57.810Z,3.70
2023-09-09T07:49:00.408Z,3.20
2023-09-09T08:05:01.513Z,3.20
2023-09-09T08:07:34.721Z,3.00
2023-09-09T08:10:30.348Z,2.70
2023-09-09T08:26:54.270Z,3.00
2023-09-09T08:32:29.058Z,2.60
2023-09-09T09:26:30.734Z,2.40
2023-09-09T09:29:40.372Z,2.00
2023-09-09T09:32:31.698Z,2.00
2023-09-09T09:35:01.226Z,2.50
2023-09-09T09:47:44.912Z,2.30
2023-09-09T09:50:19.390Z,1.90
2023-09-09T09:53:25.567Z,2.20
2023-09-09T09:56:17.411Z,2.10
2023-09-09T09:58:50.724Z,2.50
2023-09-09T10:01:57.472Z,2.10
2023-09-09T10:04:28.834Z,2.50
2023-09-09T10:07:06.171Z,2.30
2023-09-09T10:09:43.924Z,2.20
2023-09-09T10:12:23.003Z,2.80
2023-09-09T10:15:01.004Z,2.40
2023-09-09T10:17:31.490Z,2.60
2023-09-09T10:20:22.506Z,2.40
2023-09-09T10:23:00.107Z,2.30
2023-09-09T10:25:30.181Z,2.60
2023-09-09T10:28:01.054Z,2.20
2023-09-09T10:30:35.633Z,2.30
2023-09-09T10:33:08.351Z,2.30
2023-09-09T10:35:38.499Z,2.70
2023-09-09T10:38:09.331Z,2.40
2023-09-09T10:40:56.894Z,3.10
2023-09-09T10:43:43.999Z,2.70
2023-09-09T10:46:34.667Z,2.70
2023-09-09T10:49:24.536Z,2.40
2023-09-09T10:51:53.740Z,2.10
2023-09-09T10:54:34.772Z,2.20
2023-09-09T10:57:33.588Z,1.80
2023-09-09T11:00:43.012Z,2.50
2023-09-09T11:03:43.008Z,2.40
2023-09-09T11:06:48.649Z,2.20
2023-09-09T11:09:17.734Z,3.70
2023-09-09T11:12:13.766Z,3.90
2023-09-09T11:15:10.491Z,2.70
2023-09-09T11:18:04.084Z,2.60
2023-09-09T11:23:20.420Z,2.30
2023-09-09T11:25:50.419Z,2.20
2023-09-09T11:28:20.331Z,2.10
2023-09-09T11:31:12.902Z,2.20
2023-09-09T11:33:44.164Z,2.30
2023-09-09T11:36:17.801Z,2.70
2023-09-09T11:38:47.705Z,2.40
2023-09-09T11:41:29.714Z,2.30
2023-09-09T11:44:00.462Z,2.10
2023-09-09T11:46:33.389Z,2.40
2023-09-09T11:49:36.656Z,2.40
2023-09-09T11:52:26.479Z,2.20
2023-09-09T11:55:04.205Z,2.30
2023-09-09T11:57:33.309Z,2.30
2023-09-09T12:00:23.753Z,2.00
2023-09-09T12:02:53.273Z,2.10
2023-09-09T12:05:51.440Z,2.30
2023-09-09T12:08:58.405Z,2.20
2023-09-09T12:11:28.679Z,2.00
2023-09-09T12:14:18.092Z,2.20
2023-09-09T12:16:57.635Z,2.40
2023-09-09T12:19:55.956Z,2.50
2023-09-09T12:22:54.572Z,2.10
2023-09-09T12:25:31.530Z,2.30
2023-09-09T12:28:01.727Z,2.30
2023-09-09T12:30:57.624Z,2.40
2023-09-09T12:33:29.326Z,2.20
2023-09-09T12:35:58.499Z,2.00
2023-09-09T12:38:46.932Z,2.40
2023-09-09T12:44:33.777Z,2.30
2023-09-09T12:47:06.577Z,2.50
2023-09-09T12:49:36.210Z,2.20
2023-09-09T12:52:06.835Z,2.30
2023-09-09T12:54:36.233Z,2.30
2023-09-09T12:57:06.100Z,2.30
2023-09-09T12:59:35.496Z,2.40
2023-09-09T13:02:24.802Z,2.50
2023-09-09T13:04:54.007Z,2.30
2023-09-09T13:07:23.542Z,2.40
2023-09-09T13:10:11.895Z,2.30
2023-09-09T13:13:01.174Z,2.40
2023-09-09T13:15:54.603Z,2.20
2023-09-09T13:18:24.639Z,2.80
2023-09-09T13:21:24.164Z,2.20
2023-09-09T13:23:53.443Z,2.10
2023-09-09T13:26:23.646Z,2.50
2023-09-09T13:28:53.220Z,2.40
2023-09-09T13:31:22.918Z,2.20
2023-09-09T13:34:10.071Z,2.20
2023-09-09T13:36:39.291Z,2.20
2023-09-09T13:39:09.108Z,2.30
2023-09-09T13:41:38.700Z,2.20
2023-09-09T13:44:08.248Z,3.00
2023-09-09T13:46:37.475Z,2.50
2023-09-09T13:49:07.828Z,2.30
2023-09-09T13:51:54.544Z,2.50
2023-09-09T13:54:41.891Z,1.90
2023-09-09T13:57:11.392Z,2.30
2023-09-09T13:59:44.227Z,2.50
2023-09-09T14:03:04.959Z,2.40
2023-09-09T14:06:18.647Z,2.40
2023-09-09T14:08:49.384Z,2.00
2023-09-09T14:11:38.806Z,2.10
2023-09-09T14:14:25.214Z,2.40
2023-09-09T14:17:04.888Z,2.00
2023-09-09T14:19:34.073Z,2.10
2023-09-09T14:22:43.470Z,2.10
2023-09-09T14:25:32.485Z,2.20
2023-09-09T14:28:01.895Z,2.20
2023-09-09T14:30:31.302Z,2.20
2023-09-09T14:33:09.599Z,2.10
2023-09-09T14:35:56.411Z,2.40
2023-09-09T14:38:25.907Z,2.50
2023-09-09T14:41:16.267Z,2.50
2023-09-09T14:43:45.659Z,2.20
2023-09-09T14:46:14.987Z,2.50
2023-09-09T14:49:01.905Z,2.80
2023-09-09T14:51:33.153Z,2.30
2023-09-09T14:54:03.460Z,1.60
2023-09-09T14:56:34.239Z,2.30
2023-09-09T14:59:05.818Z,2.20
2023-09-09T15:01:35.488Z,2.10
2023-09-09T15:04:05.987Z,1.90
2023-09-09T15:06:35.338Z,2.30
2023-09-09T15:09:05.319Z,2.40
2023-09-09T15:11:34.537Z,2.50
2023-09-09T15:14:23.979Z,2.50
2023-09-09T15:16:57.138Z,2.10
2023-09-09T15:19:26.639Z,2.40
2023-09-09T15:21:56.025Z,2.50
2023-09-09T15:24:27.592Z,2.30
2023-09-09T15:26:57.497Z,2.50
2023-09-09T15:29:27.437Z,2.20
2023-09-09T15:31:58.776Z,2.30
2023-09-09T15:35:48.477Z,2.40
2023-09-09T15:38:41.584Z,2.60
2023-09-09T15:41:11.072Z,2.40
2023-09-09T15:43:46.866Z,2.40
2023-09-09T15:46:16.301Z,2.20
2023-09-09T15:49:17.485Z,2.50
2023-09-09T15:51:46.630Z,2.60
2023-09-09T15:54:15.758Z,2.90
2023-09-09T15:56:45.268Z,2.50
2023-09-09T15:59:22.845Z,2.50
2023-09-09T16:02:08.675Z,2.40
2023-09-09T16:04:37.754Z,2.60
2023-09-09T16:07:07.317Z,2.20
2023-09-09T16:09:38.789Z,2.60
2023-09-09T16:12:48.606Z,2.60
2023-09-09T16:15:20.085Z,3.00
2023-09-09T16:17:49.429Z,3.20
2023-09-09T16:20:38.622Z,2.80
2023-09-09T16:23:08.160Z,2.90
2023-09-09T16:26:17.611Z,2.60
2023-09-09T16:28:49.498Z,2.70
2023-09-09T16:31:21.155Z,2.50
2023-09-09T16:33:54.747Z,3.00
2023-09-09T16:36:27.986Z,3.10
2023-09-09T16:38:57.339Z,2.90
2023-09-09T16:41:44.679Z,2.90
2023-09-09T16:44:31.237Z,2.90
2023-09-09T16:47:37.869Z,2.70
2023-09-09T16:50:32.429Z,2.60
2023-09-09T16:53:41.750Z,2.90
2023-09-09T16:56:30.997Z,3.30
2023-09-09T16:59:00.664Z,3.10
2023-09-09T17:01:50.539Z,3.10
2023-09-09T17:04:48.016Z,3.50
2023-09-09T17:07:37.035Z,2.80
2023-09-09T17:10:10.477Z,3.00
2023-09-09T17:15:34.616Z,3.20
2023-09-09T17:18:23.992Z,3.20
2023-09-09T17:21:04.323Z,3.30
2023-09-09T17:24:10.704Z,3.40
2023-09-09T17:27:00.301Z,3.20
2023-09-09T17:29:49.577Z,2.60
2023-09-09T17:32:19.057Z,3.00
2023-09-09T17:35:09.425Z,3.20
2023-09-09T17:37:39.601Z,3.40
2023-09-09T17:40:31.847Z,3.00
2023-09-09T17:43:06.825Z,3.40
2023-09-09T17:45:36.678Z,2.90
2023-09-09T17:48:55.814Z,3.80
2023-09-09T17:51:26.091Z,3.60
2023-09-09T17:53:55.415Z,3.50
2023-09-09T17:56:24.626Z,3.70
2023-09-09T17:58:55.350Z,3.50
2023-09-09T18:01:25.968Z,2.80
2023-09-09T18:04:50.814Z,3.60
2023-09-09T18:07:28.937Z,3.60
2023-09-09T18:30:23.908Z,3.70
2023-09-09T18:32:57.869Z,4.00
2023-09-09T18:39:22.416Z,3.80
2023-09-09T18:42:22.472Z,3.70
2023-09-09T18:45:09.660Z,3.70
2023-09-09T18:54:30.322Z,3.60
2023-09-09T18:57:29.992Z,3.40
2023-09-09T19:01:08.152Z,3.60
2023-09-09T19:04:17.888Z,3.70
2023-09-09T19:07:52.416Z,3.60
2023-09-09T19:11:42.541Z,4.20
2023-09-09T19:14:32.437Z,4.10
2023-09-09T19:17:20.020Z,5.40
2023-09-09T19:21:14.009Z,4.20
2023-09-09T19:25:48.377Z,4.60
2023-09-09T19:39:28.408Z,4.50
2023-09-09T19:43:57.278Z,5.20
2023-09-09T19:48:25.430Z,5.60
2023-09-09T19:53:08.237Z,7.80
2023-09-09T19:56:43.510Z,5.50
2023-09-09T20:00:13.273Z,4.90
2023-09-09T20:09:22.464Z,4.50
2023-09-09T20:18:08.219Z,7.90
2023-09-09T20:27:22.404Z,5.90
2023-09-09T20:31:56.120Z,4.80
2023-09-09T20:40:37.034Z,5.30
2023-09-09T20:44:54.247Z,5.50
2023-09-09T20:47:46.055Z,18.90
2023-09-09T20:50:39.629Z,7.80
2023-09-09T20:54:27.680Z,6.70
2023-09-09T20:56:59.280Z,8.90
2023-09-09T20:59:50.646Z,9.60
2023-09-09T21:02:42.506Z,9.70
2023-09-09T21:05:53.659Z,18.20
2023-09-09T21:08:52.788Z,10.40
2023-09-09T21:11:44.267Z,9.50
2023-09-09T21:15:41.977Z,16.80
2023-09-09T21:19:49.799Z,9.10
2023-09-09T21:23:01.995Z,8.10
2023-09-09T21:26:05.142Z,9.10
2023-09-09T21:29:14.988Z,11.90
2023-09-09T21:32:27.602Z,12.10
2023-09-09T21:35:54.332Z,6.90
2023-09-09T21:39:36.606Z,6.30
2023-09-09T21:42:25.179Z,6.30
2023-09-09T21:45:42.181Z,5.80
2023-09-09T21:48:28.857Z,12.70
2023-09-09T21:50:58.422Z,15.30
2023-09-09T21:53:47.346Z,14.30
2023-09-09T21:56:36.565Z,7.60
2023-09-09T21:59:06.326Z,7.80
2023-09-09T22:01:36.162Z,7.70
2023-09-09T22:04:06.378Z,13.60
2023-09-09T22:06:55.806Z,11.10
2023-09-09T22:09:26.926Z,9.70
2023-09-09T22:12:37.365Z,7.40
2023-09-09T22:15:09.419Z,6.80
2023-09-09T22:17:39.284Z,9.40
2023-09-09T22:20:12.128Z,7.50
2023-09-09T22:22:41.585Z,7.30
2023-09-09T22:25:31.436Z,6.80
2023-09-09T22:28:00.455Z,7.10
2023-09-09T22:30:30.337Z,7.60
2023-09-09T22:33:00.484Z,12.20
2023-09-09T22:35:30.774Z,21.00
2023-09-09T22:38:23.431Z,12.30
2023-09-09T22:40:54.917Z,8.10
2023-09-09T22:43:24.515Z,8.00
2023-09-09T22:45:55.292Z,10.80
2023-09-09T22:48:46.184Z,14.50
2023-09-09T22:51:18.145Z,18.70
2023-09-09T22:53:49.178Z,10.60
2023-09-09T22:56:18.753Z,8.80
2023-09-09T22:58:48.408Z,9.00
2023-09-09T23:01:17.435Z,7.40
2023-09-09T23:03:46.590Z,7.20
2023-09-09T23:06:16.435Z,6.70
2023-09-09T23:08:45.601Z,6.70
2023-09-09T23:11:15.822Z,7.50
2023-09-09T23:13:44.876Z,7.70
2023-09-09T23:16:14.248Z,7.40
2023-09-09T23:18:44.413Z,8.80
2023-09-09T23:21:13.262Z,9.80
2023-09-09T23:23:42.751Z,10.80
2023-09-09T23:26:13.213Z,8.80
2023-09-09T23:28:42.633Z,10.00
2023-09-09T23:31:13.564Z,8.20
2023-09-09T23:33:46.894Z,7.20
2023-09-09T23:36:16.019Z,6.10
2023-09-09T23:39:06.651Z,5.50
2023-09-09T23:41:36.656Z,6.00
2023-09-09T23:44:06.811Z,5.00
2023-09-09T23:46:54.325Z,4.60
2023-09-09T23:49:44.544Z,5.20
2023-09-09T23:52:23.293Z,5.10
2023-09-09T23:54:52.329Z,4.80
2023-09-09T23:57:21.441Z,4.40
2023-09-09T23:59:51.255Z,4.60
